sensor_id;sensor_type;location;lat;lon;timestamp;pressure;altitude;pressure_sealevel;temperature;humidity
17230;BME280;8731;50.364;8.958;2024-01-06T00:00:09;98850.66;;;6.10;94.67
17230;BME280;8731;50.364;8.958;2024-01-06T00:04:33;98864.03;;;6.09;94.84
17230;BME280;8731;50.364;8.958;2024-01-06T00:08:57;98871.34;;;6.06;94.23
17230;BME280;8731;50.364;8.958;2024-01-06T00:13:19;98869.16;;;6.01;94.91
17230;BME280;8731;50.364;8.958;2024-01-06T00:17:42;98862.69;;;5.94;95.32
17230;BME280;8731;50.364;8.958;2024-01-06T00:22:04;98867.75;;;5.85;94.72
17230;BME280;8731;50.364;8.958;2024-01-06T00:26:28;98874.72;;;5.88;94.56
17230;BME280;8731;50.364;8.958;2024-01-06T00:30:50;98876.91;;;5.75;94.90
17230;BME280;8731;50.364;8.958;2024-01-06T00:35:14;98881.22;;;5.76;94.70
17230;BME280;8731;50.364;8.958;2024-01-06T00:39:36;98873.78;;;5.77;94.79
17230;BME280;8731;50.364;8.958;2024-01-06T00:44:00;98882.75;;;5.65;94.99
17230;BME280;8731;50.364;8.958;2024-01-06T00:48:23;98890.94;;;5.63;94.70
17230;BME280;8731;50.364;8.958;2024-01-06T00:52:45;98888.91;;;5.59;94.75
17230;BME280;8731;50.364;8.958;2024-01-06T00:57:08;98891.28;;;5.57;95.09
17230;BME280;8731;50.364;8.958;2024-01-06T01:01:32;98889.38;;;5.54;94.71
17230;BME280;8731;50.364;8.958;2024-01-06T01:05:54;98897.16;;;5.47;94.70
17230;BME280;8731;50.364;8.958;2024-01-06T01:10:17;98904.53;;;5.27;95.32
17230;BME280;8731;50.364;8.958;2024-01-06T01:14:39;98898.25;;;5.32;95.87
17230;BME280;8731;50.364;8.958;2024-01-06T01:19:06;98899.28;;;5.34;95.95
17230;BME280;8731;50.364;8.958;2024-01-06T01:23:29;98909.22;;;5.33;95.86
17230;BME280;8731;50.364;8.958;2024-01-06T01:27:51;98911.22;;;5.18;97.52
17230;BME280;8731;50.364;8.958;2024-01-06T01:32:13;98915.78;;;5.31;97.08
17230;BME280;8731;50.364;8.958;2024-01-06T01:36:37;98911.75;;;5.33;96.93
17230;BME280;8731;50.364;8.958;2024-01-06T01:41:00;98921.09;;;5.34;98.31
17230;BME280;8731;50.364;8.958;2024-01-06T01:45:22;98911.16;;;5.35;97.90
17230;BME280;8731;50.364;8.958;2024-01-06T01:49:45;98915.72;;;5.39;97.90
17230;BME280;8731;50.364;8.958;2024-01-06T01:54:09;98923.16;;;5.38;99.05
17230;BME280;8731;50.364;8.958;2024-01-06T01:58:32;98924.78;;;5.46;97.85
17230;BME280;8731;50.364;8.958;2024-01-06T02:02:55;98931.13;;;5.51;98.12
17230;BME280;8731;50.364;8.958;2024-01-06T02:07:18;98929.75;;;5.54;98.96
17230;BME280;8731;50.364;8.958;2024-01-06T02:11:42;98928.41;;;5.58;98.29
17230;BME280;8731;50.364;8.958;2024-01-06T02:16:05;98933.91;;;5.54;98.71
17230;BME280;8731;50.364;8.958;2024-01-06T02:20:30;98936.25;;;5.61;98.37
17230;BME280;8731;50.364;8.958;2024-01-06T02:24:55;98942.59;;;5.39;100.00
17230;BME280;8731;50.364;8.958;2024-01-06T02:29:18;98946.06;;;5.58;100.00
17230;BME280;8731;50.364;8.958;2024-01-06T02:33:40;98939.19;;;5.66;98.98
17230;BME280;8731;50.364;8.958;2024-01-06T02:38:03;98945.72;;;5.64;99.08
17230;BME280;8731;50.364;8.958;2024-01-06T02:42:27;98940.38;;;5.69;99.57
17230;BME280;8731;50.364;8.958;2024-01-06T02:46:50;98937.50;;;5.75;99.51
17230;BME280;8731;50.364;8.958;2024-01-06T02:51:14;98937.03;;;5.79;99.07
17230;BME280;8731;50.364;8.958;2024-01-06T02:55:36;98949.94;;;5.82;98.98
17230;BME280;8731;50.364;8.958;2024-01-06T03:00:01;98950.69;;;5.81;99.34
17230;BME280;8731;50.364;8.958;2024-01-06T03:04:24;98962.28;;;5.79;99.10
17230;BME280;8731;50.364;8.958;2024-01-06T03:08:46;98962.69;;;5.83;99.39
17230;BME280;8731;50.364;8.958;2024-01-06T03:13:09;98968.66;;;5.93;98.91
17230;BME280;8731;50.364;8.958;2024-01-06T03:17:32;98966.59;;;5.80;99.63
17230;BME280;8731;50.364;8.958;2024-01-06T03:21:55;98969.13;;;5.80;100.00
17230;BME280;8731;50.364;8.958;2024-01-06T03:26:17;98967.00;;;5.93;99.95
17230;BME280;8731;50.364;8.958;2024-01-06T03:30:40;98973.34;;;5.98;99.10
17230;BME280;8731;50.364;8.958;2024-01-06T03:35:05;98971.16;;;5.93;99.13
17230;BME280;8731;50.364;8.958;2024-01-06T03:39:28;98971.66;;;5.80;99.96
17230;BME280;8731;50.364;8.958;2024-01-06T03:43:51;98975.59;;;5.95;100.00
17230;BME280;8731;50.364;8.958;2024-01-06T03:48:13;98965.81;;;5.90;99.49
17230;BME280;8731;50.364;8.958;2024-01-06T03:52:38;98978.28;;;5.88;100.00
17230;BME280;8731;50.364;8.958;2024-01-06T03:57:00;98972.88;;;6.02;99.64
17230;BME280;8731;50.364;8.958;2024-01-06T04:01:22;98981.81;;;5.99;99.44
17230;BME280;8731;50.364;8.958;2024-01-06T04:05:45;98992.88;;;5.82;99.71
17230;BME280;8731;50.364;8.958;2024-01-06T04:10:09;98990.16;;;5.89;100.00
17230;BME280;8731;50.364;8.958;2024-01-06T04:14:32;98995.53;;;5.83;100.00
17230;BME280;8731;50.364;8.958;2024-01-06T04:18:54;98995.06;;;5.96;99.24
17230;BME280;8731;50.364;8.958;2024-01-06T04:23:17;99000.53;;;6.01;98.76
17230;BME280;8731;50.364;8.958;2024-01-06T04:27:41;99000.81;;;6.04;98.82
17230;BME280;8731;50.364;8.958;2024-01-06T04:32:05;98997.88;;;5.99;99.28
17230;BME280;8731;50.364;8.958;2024-01-06T04:36:29;98993.72;;;5.91;100.00
17230;BME280;8731;50.364;8.958;2024-01-06T04:40:52;98995.53;;;5.92;100.00
17230;BME280;8731;50.364;8.958;2024-01-06T04:45:16;98999.91;;;6.03;99.28
17230;BME280;8731;50.364;8.958;2024-01-06T04:49:39;99003.47;;;6.05;99.26
17230;BME280;8731;50.364;8.958;2024-01-06T04:54:02;99013.44;;;6.04;99.38
17230;BME280;8731;50.364;8.958;2024-01-06T04:58:24;99016.78;;;6.13;99.45
17230;BME280;8731;50.364;8.958;2024-01-06T05:02:49;99005.50;;;6.09;98.92
17230;BME280;8731;50.364;8.958;2024-01-06T05:07:11;99011.72;;;6.13;98.74
17230;BME280;8731;50.364;8.958;2024-01-06T05:11:33;99019.03;;;6.10;99.33
17230;BME280;8731;50.364;8.958;2024-01-06T05:15:56;99015.91;;;6.12;99.16
17230;BME280;8731;50.364;8.958;2024-01-06T05:20:20;99020.66;;;6.18;98.58
17230;BME280;8731;50.364;8.958;2024-01-06T05:24:42;99018.25;;;6.20;99.20
17230;BME280;8731;50.364;8.958;2024-01-06T05:29:06;99018.53;;;6.23;99.19
17230;BME280;8731;50.364;8.958;2024-01-06T05:33:29;99021.25;;;6.15;99.59
17230;BME280;8731;50.364;8.958;2024-01-06T05:37:53;99018.53;;;6.23;98.90
17230;BME280;8731;50.364;8.958;2024-01-06T05:42:15;99017.09;;;6.16;99.15
17230;BME280;8731;50.364;8.958;2024-01-06T05:46:38;99027.34;;;6.18;98.80
17230;BME280;8731;50.364;8.958;2024-01-06T05:51:00;99020.56;;;6.27;99.26
17230;BME280;8731;50.364;8.958;2024-01-06T05:55:25;99018.03;;;6.27;99.19
17230;BME280;8731;50.364;8.958;2024-01-06T05:59:47;99024.88;;;6.28;99.50
17230;BME280;8731;50.364;8.958;2024-01-06T06:04:10;99037.09;;;6.23;99.70
17230;BME280;8731;50.364;8.958;2024-01-06T06:08:33;99052.41;;;6.25;99.32
17230;BME280;8731;50.364;8.958;2024-01-06T06:12:57;99055.53;;;6.22;98.72
17230;BME280;8731;50.364;8.958;2024-01-06T06:17:19;99055.97;;;6.27;99.15
17230;BME280;8731;50.364;8.958;2024-01-06T06:21:42;99061.00;;;6.27;98.98
17230;BME280;8731;50.364;8.958;2024-01-06T06:26:06;99063.75;;;6.20;98.86
17230;BME280;8731;50.364;8.958;2024-01-06T06:30:30;99075.75;;;6.22;99.05
17230;BME280;8731;50.364;8.958;2024-01-06T06:34:53;99084.38;;;6.24;99.14
17230;BME280;8731;50.364;8.958;2024-01-06T06:39:15;99078.91;;;6.20;99.09
17230;BME280;8731;50.364;8.958;2024-01-06T06:43:38;99076.88;;;6.07;99.61
17230;BME280;8731;50.364;8.958;2024-01-06T06:48:04;99089.47;;;6.15;99.69
17230;BME280;8731;50.364;8.958;2024-01-06T06:52:27;99095.69;;;6.19;99.18
17230;BME280;8731;50.364;8.958;2024-01-06T06:56:49;99104.19;;;6.11;99.45
17230;BME280;8731;50.364;8.958;2024-01-06T07:01:13;99105.66;;;6.18;98.92
17230;BME280;8731;50.364;8.958;2024-01-06T07:05:37;99112.22;;;6.15;98.69
17230;BME280;8731;50.364;8.958;2024-01-06T07:10:00;99123.84;;;6.05;99.35
17230;BME280;8731;50.364;8.958;2024-01-06T07:14:23;99139.28;;;6.17;99.15
17230;BME280;8731;50.364;8.958;2024-01-06T07:18:46;99139.72;;;6.12;99.22
17230;BME280;8731;50.364;8.958;2024-01-06T07:23:10;99140.72;;;6.14;99.52
17230;BME280;8731;50.364;8.958;2024-01-06T07:27:32;99151.16;;;6.18;99.25
17230;BME280;8731;50.364;8.958;2024-01-06T07:31:55;99156.78;;;6.15;99.50
17230;BME280;8731;50.364;8.958;2024-01-06T07:36:17;99162.00;;;6.17;99.82
17230;BME280;8731;50.364;8.958;2024-01-06T07:40:41;99159.28;;;6.24;99.99
17230;BME280;8731;50.364;8.958;2024-01-06T07:45:05;99165.44;;;6.17;100.00
17230;BME280;8731;50.364;8.958;2024-01-06T07:49:29;99179.38;;;6.13;100.00
17230;BME280;8731;50.364;8.958;2024-01-06T07:53:51;99181.50;;;6.09;100.00
17230;BME280;8731;50.364;8.958;2024-01-06T07:58:15;99175.22;;;6.23;100.00
17230;BME280;8731;50.364;8.958;2024-01-06T08:02:37;99183.41;;;6.20;100.00
17230;BME280;8731;50.364;8.958;2024-01-06T08:07:00;99201.38;;;6.23;100.00
17230;BME280;8731;50.364;8.958;2024-01-06T08:11:22;99203.34;;;6.17;100.00
17230;BME280;8731;50.364;8.958;2024-01-06T08:15:47;99207.41;;;6.34;100.00
17230;BME280;8731;50.364;8.958;2024-01-06T08:20:09;99214.63;;;6.21;100.00
17230;BME280;8731;50.364;8.958;2024-01-06T08:24:32;99220.13;;;6.17;100.00
17230;BME280;8731;50.364;8.958;2024-01-06T08:28:54;99219.25;;;6.16;100.00
17230;BME280;8731;50.364;8.958;2024-01-06T08:33:18;99227.25;;;6.21;100.00
17230;BME280;8731;50.364;8.958;2024-01-06T08:37:40;99225.06;;;6.06;100.00
17230;BME280;8731;50.364;8.958;2024-01-06T08:42:05;99239.72;;;6.28;100.00
17230;BME280;8731;50.364;8.958;2024-01-06T08:46:28;99233.84;;;6.37;100.00
17230;BME280;8731;50.364;8.958;2024-01-06T08:50:52;99241.56;;;6.47;100.00
17230;BME280;8731;50.364;8.958;2024-01-06T08:55:14;99248.41;;;6.49;100.00
17230;BME280;8731;50.364;8.958;2024-01-06T08:59:37;99243.59;;;6.60;100.00
17230;BME280;8731;50.364;8.958;2024-01-06T09:04:00;99255.19;;;6.58;100.00
17230;BME280;8731;50.364;8.958;2024-01-06T09:08:24;99252.78;;;6.68;100.00
17230;BME280;8731;50.364;8.958;2024-01-06T09:12:46;99264.28;;;6.56;100.00
17230;BME280;8731;50.364;8.958;2024-01-06T09:17:08;99267.69;;;6.65;100.00
17230;BME280;8731;50.364;8.958;2024-01-06T09:21:31;99270.16;;;6.74;100.00
17230;BME280;8731;50.364;8.958;2024-01-06T09:25:55;99277.50;;;6.62;100.00
17230;BME280;8731;50.364;8.958;2024-01-06T09:30:18;99288.75;;;6.74;100.00
17230;BME280;8731;50.364;8.958;2024-01-06T09:34:40;99292.16;;;7.30;100.00
17230;BME280;8731;50.364;8.958;2024-01-06T09:39:03;99292.28;;;7.31;100.00
17230;BME280;8731;50.364;8.958;2024-01-06T09:43:27;99301.81;;;7.15;100.00
17230;BME280;8731;50.364;8.958;2024-01-06T09:47:51;99300.31;;;7.17;100.00
17230;BME280;8731;50.364;8.958;2024-01-06T09:52:15;99304.06;;;7.31;100.00
17230;BME280;8731;50.364;8.958;2024-01-06T09:56:45;99306.13;;;7.16;100.00
17230;BME280;8731;50.364;8.958;2024-01-06T10:01:10;99306.34;;;7.47;100.00
17230;BME280;8731;50.364;8.958;2024-01-06T10:05:35;99301.22;;;7.36;100.00
17230;BME280;8731;50.364;8.958;2024-01-06T10:09:57;99302.41;;;7.13;100.00
17230;BME280;8731;50.364;8.958;2024-01-06T10:14:20;99304.31;;;7.43;100.00
17230;BME280;8731;50.364;8.958;2024-01-06T10:18:45;99310.63;;;7.10;100.00
17230;BME280;8731;50.364;8.958;2024-01-06T10:23:08;99313.63;;;7.33;100.00
17230;BME280;8731;50.364;8.958;2024-01-06T10:27:30;99314.75;;;7.18;100.00
17230;BME280;8731;50.364;8.958;2024-01-06T10:31:54;99312.38;;;6.84;100.00
17230;BME280;8731;50.364;8.958;2024-01-06T10:36:19;99311.19;;;6.89;100.00
17230;BME280;8731;50.364;8.958;2024-01-06T10:40:55;99310.22;;;7.24;100.00
17230;BME280;8731;50.364;8.958;2024-01-06T10:45:19;99312.06;;;6.89;100.00
17230;BME280;8731;50.364;8.958;2024-01-06T10:49:43;99322.59;;;7.21;100.00
17230;BME280;8731;50.364;8.958;2024-01-06T10:54:08;99329.38;;;7.31;100.00
17230;BME280;8731;50.364;8.958;2024-01-06T10:58:34;99321.81;;;7.03;100.00
17230;BME280;8731;50.364;8.958;2024-01-06T11:03:04;99321.66;;;7.29;100.00
17230;BME280;8731;50.364;8.958;2024-01-06T11:07:27;99304.78;;;7.38;100.00
17230;BME280;8731;50.364;8.958;2024-01-06T11:11:53;99309.19;;;7.22;100.00
17230;BME280;8731;50.364;8.958;2024-01-06T11:16:34;99303.06;;;7.48;100.00
17230;BME280;8731;50.364;8.958;2024-01-06T11:21:19;99309.28;;;7.51;100.00
17230;BME280;8731;50.364;8.958;2024-01-06T11:25:46;99305.53;;;7.56;100.00
17230;BME280;8731;50.364;8.958;2024-01-06T11:30:19;99304.94;;;7.59;100.00
17230;BME280;8731;50.364;8.958;2024-01-06T11:34:48;99306.25;;;7.64;100.00
17230;BME280;8731;50.364;8.958;2024-01-06T11:39:34;99305.22;;;7.62;100.00
17230;BME280;8731;50.364;8.958;2024-01-06T11:43:58;99300.91;;;7.61;100.00
17230;BME280;8731;50.364;8.958;2024-01-06T11:48:26;99298.97;;;7.77;100.00
17230;BME280;8731;50.364;8.958;2024-01-06T11:52:53;99298.41;;;7.71;100.00
17230;BME280;8731;50.364;8.958;2024-01-06T11:57:15;99293.56;;;7.83;100.00
17230;BME280;8731;50.364;8.958;2024-01-06T12:01:38;99297.13;;;7.85;100.00
17230;BME280;8731;50.364;8.958;2024-01-06T12:06:03;99289.53;;;7.85;100.00
17230;BME280;8731;50.364;8.958;2024-01-06T12:10:27;99297.88;;;7.65;100.00
17230;BME280;8731;50.364;8.958;2024-01-06T12:14:50;99295.13;;;7.72;100.00
17230;BME280;8731;50.364;8.958;2024-01-06T12:19:13;99287.66;;;7.74;100.00
17230;BME280;8731;50.364;8.958;2024-01-06T12:23:37;99288.91;;;7.68;100.00
17230;BME280;8731;50.364;8.958;2024-01-06T12:28:01;99280.59;;;7.80;100.00
17230;BME280;8731;50.364;8.958;2024-01-06T12:32:23;99284.72;;;7.69;100.00
17230;BME280;8731;50.364;8.958;2024-01-06T12:36:46;99288.28;;;7.52;100.00
17230;BME280;8731;50.364;8.958;2024-01-06T12:41:12;99285.47;;;7.87;100.00
17230;BME280;8731;50.364;8.958;2024-01-06T12:45:34;99291.22;;;7.76;100.00
17230;BME280;8731;50.364;8.958;2024-01-06T12:49:57;99300.16;;;7.81;100.00
17230;BME280;8731;50.364;8.958;2024-01-06T12:54:19;99295.25;;;7.92;100.00
17230;BME280;8731;50.364;8.958;2024-01-06T12:58:44;99301.34;;;7.94;100.00
17230;BME280;8731;50.364;8.958;2024-01-06T13:03:07;99296.34;;;8.05;100.00
17230;BME280;8731;50.364;8.958;2024-01-06T13:07:29;99305.66;;;7.95;100.00
17230;BME280;8731;50.364;8.958;2024-01-06T13:11:52;99309.06;;;8.15;100.00
17230;BME280;8731;50.364;8.958;2024-01-06T13:16:17;99307.94;;;8.21;100.00
17230;BME280;8731;50.364;8.958;2024-01-06T13:20:40;99312.63;;;8.17;100.00
17230;BME280;8731;50.364;8.958;2024-01-06T13:25:04;99311.75;;;8.16;100.00
17230;BME280;8731;50.364;8.958;2024-01-06T13:29:29;99316.38;;;8.30;99.79
17230;BME280;8731;50.364;8.958;2024-01-06T13:33:53;99318.72;;;8.19;100.00
17230;BME280;8731;50.364;8.958;2024-01-06T13:38:16;99319.50;;;7.99;99.89
17230;BME280;8731;50.364;8.958;2024-01-06T13:42:39;99328.94;;;8.10;100.00
17230;BME280;8731;50.364;8.958;2024-01-06T13:47:03;99321.25;;;8.19;100.00
17230;BME280;8731;50.364;8.958;2024-01-06T13:51:28;99339.72;;;8.08;99.99
17230;BME280;8731;50.364;8.958;2024-01-06T13:55:50;99334.94;;;8.21;100.00
17230;BME280;8731;50.364;8.958;2024-01-06T14:00:15;99342.75;;;8.32;100.00
17230;BME280;8731;50.364;8.958;2024-01-06T14:04:39;99347.84;;;8.14;100.00
17230;BME280;8731;50.364;8.958;2024-01-06T14:09:03;99346.63;;;8.00;100.00
17230;BME280;8731;50.364;8.958;2024-01-06T14:13:27;99350.53;;;7.96;100.00
17230;BME280;8731;50.364;8.958;2024-01-06T14:17:50;99347.22;;;8.16;100.00
17230;BME280;8731;50.364;8.958;2024-01-06T14:22:12;99355.94;;;8.10;100.00
17230;BME280;8731;50.364;8.958;2024-01-06T14:26:37;99351.81;;;8.01;100.00
17230;BME280;8731;50.364;8.958;2024-01-06T14:31:02;99361.16;;;8.11;100.00
17230;BME280;8731;50.364;8.958;2024-01-06T14:35:25;99360.19;;;8.19;100.00
17230;BME280;8731;50.364;8.958;2024-01-06T14:39:48;99364.22;;;8.17;100.00
17230;BME280;8731;50.364;8.958;2024-01-06T14:44:11;99367.16;;;8.22;100.00
17230;BME280;8731;50.364;8.958;2024-01-06T14:48:34;99367.91;;;8.21;100.00
17230;BME280;8731;50.364;8.958;2024-01-06T14:52:57;99386.28;;;8.18;100.00
17230;BME280;8731;50.364;8.958;2024-01-06T14:57:19;99385.13;;;8.15;100.00
17230;BME280;8731;50.364;8.958;2024-01-06T15:01:43;99388.63;;;8.07;100.00
17230;BME280;8731;50.364;8.958;2024-01-06T15:06:07;99392.72;;;8.15;100.00
17230;BME280;8731;50.364;8.958;2024-01-06T15:10:30;99385.25;;;8.16;100.00
17230;BME280;8731;50.364;8.958;2024-01-06T15:14:52;99401.84;;;8.13;100.00
17230;BME280;8731;50.364;8.958;2024-01-06T15:19:16;99404.38;;;8.13;100.00
17230;BME280;8731;50.364;8.958;2024-01-06T15:23:40;99399.03;;;8.10;100.00
17230;BME280;8731;50.364;8.958;2024-01-06T15:28:03;99403.63;;;8.14;100.00
17230;BME280;8731;50.364;8.958;2024-01-06T15:32:25;99414.38;;;8.11;100.00
17230;BME280;8731;50.364;8.958;2024-01-06T15:36:49;99419.19;;;8.08;100.00
17230;BME280;8731;50.364;8.958;2024-01-06T15:41:12;99417.72;;;8.01;100.00
17230;BME280;8731;50.364;8.958;2024-01-06T15:45:34;99415.75;;;8.08;100.00
17230;BME280;8731;50.364;8.958;2024-01-06T15:49:56;99410.56;;;8.06;100.00
17230;BME280;8731;50.364;8.958;2024-01-06T15:54:20;99434.78;;;7.94;100.00
17230;BME280;8731;50.364;8.958;2024-01-06T15:58:42;99427.59;;;7.98;100.00
17230;BME280;8731;50.364;8.958;2024-01-06T16:03:05;99429.38;;;7.99;100.00
17230;BME280;8731;50.364;8.958;2024-01-06T16:07:28;99441.50;;;7.93;99.30
17230;BME280;8731;50.364;8.958;2024-01-06T16:11:53;99439.25;;;7.96;99.02
17230;BME280;8731;50.364;8.958;2024-01-06T16:16:18;99444.66;;;7.91;98.83
17230;BME280;8731;50.364;8.958;2024-01-06T16:20:42;99446.44;;;7.92;98.78
17230;BME280;8731;50.364;8.958;2024-01-06T16:25:05;99451.56;;;7.83;98.88
17230;BME280;8731;50.364;8.958;2024-01-06T16:29:29;99457.56;;;7.75;98.85
17230;BME280;8731;50.364;8.958;2024-01-06T16:33:52;99458.31;;;7.74;98.80
17230;BME280;8731;50.364;8.958;2024-01-06T16:38:14;99461.84;;;7.85;99.28
17230;BME280;8731;50.364;8.958;2024-01-06T16:42:36;99472.72;;;7.84;99.84
17230;BME280;8731;50.364;8.958;2024-01-06T16:47:01;99473.00;;;7.87;99.76
17230;BME280;8731;50.364;8.958;2024-01-06T16:51:24;99473.63;;;7.84;99.49
17230;BME280;8731;50.364;8.958;2024-01-06T16:55:46;99479.88;;;7.79;99.64
17230;BME280;8731;50.364;8.958;2024-01-06T17:00:10;99486.28;;;7.84;99.85
17230;BME280;8731;50.364;8.958;2024-01-06T17:04:35;99497.97;;;7.74;100.00
17230;BME280;8731;50.364;8.958;2024-01-06T17:08:58;99508.50;;;7.78;100.00
17230;BME280;8731;50.364;8.958;2024-01-06T17:13:21;99501.38;;;7.74;99.65
17230;BME280;8731;50.364;8.958;2024-01-06T17:17:44;99507.13;;;7.63;98.76
17230;BME280;8731;50.364;8.958;2024-01-06T17:22:08;99505.34;;;7.62;97.67
17230;BME280;8731;50.364;8.958;2024-01-06T17:26:30;99512.19;;;7.63;97.17
17230;BME280;8731;50.364;8.958;2024-01-06T17:30:53;99513.41;;;7.58;96.70
17230;BME280;8731;50.364;8.958;2024-01-06T17:35:16;99517.88;;;7.52;96.03
17230;BME280;8731;50.364;8.958;2024-01-06T17:39:40;99511.91;;;7.51;96.24
17230;BME280;8731;50.364;8.958;2024-01-06T17:44:03;99517.25;;;7.54;95.82
17230;BME280;8731;50.364;8.958;2024-01-06T17:48:26;99524.44;;;7.58;95.57
17230;BME280;8731;50.364;8.958;2024-01-06T17:52:51;99520.53;;;7.53;95.80
17230;BME280;8731;50.364;8.958;2024-01-06T17:57:16;99521.28;;;7.52;95.52
17230;BME280;8731;50.364;8.958;2024-01-06T18:01:42;99533.34;;;7.55;95.74
17230;BME280;8731;50.364;8.958;2024-01-06T18:06:07;99533.53;;;7.48;95.76
17230;BME280;8731;50.364;8.958;2024-01-06T18:10:31;99536.34;;;7.51;95.46
17230;BME280;8731;50.364;8.958;2024-01-06T18:14:59;99547.38;;;7.51;95.41
17230;BME280;8731;50.364;8.958;2024-01-06T18:19:21;99541.69;;;7.54;95.67
17230;BME280;8731;50.364;8.958;2024-01-06T18:23:46;99540.56;;;7.42;95.59
17230;BME280;8731;50.364;8.958;2024-01-06T18:28:08;99552.03;;;7.29;95.53
17230;BME280;8731;50.364;8.958;2024-01-06T18:32:33;99556.19;;;7.46;95.67
17230;BME280;8731;50.364;8.958;2024-01-06T18:36:56;99556.22;;;7.37;95.83
17230;BME280;8731;50.364;8.958;2024-01-06T18:41:20;99559.19;;;7.42;95.78
17230;BME280;8731;50.364;8.958;2024-01-06T18:45:43;99562.59;;;7.43;95.97
17230;BME280;8731;50.364;8.958;2024-01-06T18:50:08;99561.00;;;7.34;95.87
17230;BME280;8731;50.364;8.958;2024-01-06T18:54:30;99564.84;;;7.39;95.89
17230;BME280;8731;50.364;8.958;2024-01-06T18:58:57;99568.59;;;7.34;95.87
17230;BME280;8731;50.364;8.958;2024-01-06T19:03:22;99560.81;;;7.33;95.29
17230;BME280;8731;50.364;8.958;2024-01-06T19:07:46;99566.19;;;7.27;96.14
17230;BME280;8731;50.364;8.958;2024-01-06T19:12:09;99563.22;;;7.31;95.62
17230;BME280;8731;50.364;8.958;2024-01-06T19:16:34;99566.19;;;7.27;95.52
17230;BME280;8731;50.364;8.958;2024-01-06T19:20:57;99568.91;;;7.03;96.59
17230;BME280;8731;50.364;8.958;2024-01-06T19:25:21;99576.34;;;7.19;96.42
17230;BME280;8731;50.364;8.958;2024-01-06T19:29:43;99577.09;;;7.18;96.61
17230;BME280;8731;50.364;8.958;2024-01-06T19:34:07;99576.34;;;7.19;96.99
17230;BME280;8731;50.364;8.958;2024-01-06T19:38:29;99582.88;;;7.25;97.05
17230;BME280;8731;50.364;8.958;2024-01-06T19:42:53;99588.09;;;7.27;96.89
17230;BME280;8731;50.364;8.958;2024-01-06T19:47:15;99585.72;;;7.28;97.06
17230;BME280;8731;50.364;8.958;2024-01-06T19:51:40;99588.09;;;7.27;97.02
17230;BME280;8731;50.364;8.958;2024-01-06T19:56:03;99583.19;;;7.28;97.65
17230;BME280;8731;50.364;8.958;2024-01-06T20:00:28;99584.09;;;7.20;97.90
17230;BME280;8731;50.364;8.958;2024-01-06T20:04:51;99593.34;;;7.02;99.71
17230;BME280;8731;50.364;8.958;2024-01-06T20:09:14;99587.66;;;7.22;99.12
17230;BME280;8731;50.364;8.958;2024-01-06T20:13:37;99588.09;;;7.09;100.00
17230;BME280;8731;50.364;8.958;2024-01-06T20:18:01;99588.28;;;7.02;100.00
17230;BME280;8731;50.364;8.958;2024-01-06T20:22:24;99585.16;;;7.05;100.00
17230;BME280;8731;50.364;8.958;2024-01-06T20:26:47;99590.53;;;6.91;100.00
17230;BME280;8731;50.364;8.958;2024-01-06T20:31:13;99591.28;;;6.90;100.00
17230;BME280;8731;50.364;8.958;2024-01-06T20:35:37;99591.41;;;6.83;100.00
17230;BME280;8731;50.364;8.958;2024-01-06T20:39:59;99590.94;;;7.04;100.00
17230;BME280;8731;50.364;8.958;2024-01-06T20:44:22;99596.94;;;6.87;100.00
17230;BME280;8731;50.364;8.958;2024-01-06T20:48:45;99595.75;;;6.92;100.00
17230;BME280;8731;50.364;8.958;2024-01-06T20:53:10;99600.66;;;6.91;100.00
17230;BME280;8731;50.364;8.958;2024-01-06T20:57:33;99597.22;;;6.90;100.00
17230;BME280;8731;50.364;8.958;2024-01-06T21:01:58;99599.88;;;6.83;100.00
17230;BME280;8731;50.364;8.958;2024-01-06T21:06:30;99600.47;;;6.81;100.00
17230;BME280;8731;50.364;8.958;2024-01-06T21:10:54;99598.84;;;6.98;100.00
17230;BME280;8731;50.364;8.958;2024-01-06T21:15:17;99604.50;;;6.96;100.00
17230;BME280;8731;50.364;8.958;2024-01-06T21:19:41;99604.50;;;6.96;100.00
17230;BME280;8731;50.364;8.958;2024-01-06T21:24:03;99601.69;;;6.93;100.00
17230;BME280;8731;50.364;8.958;2024-01-06T21:28:28;99597.22;;;6.90;100.00
17230;BME280;8731;50.364;8.958;2024-01-06T21:32:50;99605.84;;;6.84;100.00
17230;BME280;8731;50.364;8.958;2024-01-06T21:37:20;99604.94;;;6.74;100.00
17230;BME280;8731;50.364;8.958;2024-01-06T21:41:42;99610.16;;;6.67;100.00
17230;BME280;8731;50.364;8.958;2024-01-06T21:46:07;99615.34;;;6.60;100.00
17230;BME280;8731;50.364;8.958;2024-01-06T21:50:30;99615.78;;;6.47;100.00
17230;BME280;8731;50.364;8.958;2024-01-06T21:54:53;99626.94;;;6.58;100.00
17230;BME280;8731;50.364;8.958;2024-01-06T21:59:15;99629.91;;;6.54;100.00
17230;BME280;8731;50.364;8.958;2024-01-06T22:03:39;99625.88;;;6.39;100.00
17230;BME280;8731;50.364;8.958;2024-01-06T22:08:01;99632.59;;;6.56;100.00
17230;BME280;8731;50.364;8.958;2024-01-06T22:12:27;99630.31;;;6.33;100.00
17230;BME280;8731;50.364;8.958;2024-01-06T22:16:50;99632.75;;;6.49;100.00
17230;BME280;8731;50.364;8.958;2024-01-06T22:21:13;99635.72;;;6.44;99.86
17230;BME280;8731;50.364;8.958;2024-01-06T22:25:39;99637.13;;;6.25;99.07
17230;BME280;8731;50.364;8.958;2024-01-06T22:30:06;99647.84;;;6.23;99.39
17230;BME280;8731;50.364;8.958;2024-01-06T22:34:29;99656.31;;;6.32;98.99
17230;BME280;8731;50.364;8.958;2024-01-06T22:38:53;99653.69;;;6.39;98.46
17230;BME280;8731;50.364;8.958;2024-01-06T22:43:15;99649.34;;;6.29;97.74
17230;BME280;8731;50.364;8.958;2024-01-06T22:47:38;99653.03;;;6.24;97.52
17230;BME280;8731;50.364;8.958;2024-01-06T22:52:00;99652.69;;;6.12;97.91
17230;BME280;8731;50.364;8.958;2024-01-06T22:56:25;99661.75;;;6.10;98.13
17230;BME280;8731;50.364;8.958;2024-01-06T23:00:48;99666.84;;;6.19;98.03
17230;BME280;8731;50.364;8.958;2024-01-06T23:05:12;99667.53;;;6.09;97.55
17230;BME280;8731;50.364;8.958;2024-01-06T23:09:34;99670.22;;;6.11;97.76
17230;BME280;8731;50.364;8.958;2024-01-06T23:13:59;99663.06;;;6.07;97.87
17230;BME280;8731;50.364;8.958;2024-01-06T23:18:22;99666.63;;;6.00;97.72
17230;BME280;8731;50.364;8.958;2024-01-06T23:22:44;99676.44;;;6.06;98.93
17230;BME280;8731;50.364;8.958;2024-01-06T23:27:07;99679.88;;;6.06;98.90
17230;BME280;8731;50.364;8.958;2024-01-06T23:31:31;99684.31;;;6.00;99.86
17230;BME280;8731;50.364;8.958;2024-01-06T23:35:55;99688.00;;;5.95;98.83
17230;BME280;8731;50.364;8.958;2024-01-06T23:40:18;99690.59;;;5.88;98.58
17230;BME280;8731;50.364;8.958;2024-01-06T23:44:41;99696.66;;;6.06;98.57